Startpagina
METAR-TAF:

METAR-TAF

Vliegvelden :

Luchthaven Libreville Internationaal

Libreville, Gabon

breedte: 00-27N, lengte: 009-25E, hoogte: 12 m

Actueel weer

Dit bericht is 33 minuten geleden gemaakt, om 18:00 UTC
Wind 3 kt uit het westen, variërend tussen het zuidwesten en het westnoordwesten
Temperatuur 29°C
Vochtigheid 84%
Druk 1008 hPa
Zicht 10 km of meer
Weinig wolken op 1400 ft

METAR: FOOL 231800Z 26003KT 220V300 9999 FEW014 29/26 Q1008 NOSIG

Tijdstip: 19:33 (18:33 UTC)

Verwachting

Dit bericht is 1 uur en het 33 minuten geleden gemaakt, om 17:00 UTC
Verwachting geldig van 23 om 18 UTC tot 24 om 24 UTC
Wind 5 kt uit het westzuidwesten
Zicht 10 km of meer
Verspreide wolken op 1300 ft
Gebroken wolken op 3000 ft
Kans 30% :
Tijdelijke
van 24 om 04 UTC tot 24 om 07 UTC
Zicht: 4000 m
nevel

TAF: FOOL 231700Z 2318/2424 24005KT 9999 SCT013 BKN030 PROB30 TEMPO 2404/2407 4000 BR

Waarnemingen en weersverwachtingen van meer dan 4000 vliegvelden (METAR en TAF).

De beschikbare stations zijn de gele en rode punten op de kaart.

Ga met uw muis naar het station om de naam te zien.

Klik dan om waarnemingen en weersverwachtingen te zien.

kaart wijzigen: klik op de groene knoppen met een zwart kruis om in te zoomen, op de groene knop met een streepje om uit te zoomen of op de groene pijlen voor aangrenzende kaarten.


METAR-TAF: